Airport View

Enter AWOS ICAO identifier for current METAR.

ex. KFNL

KGGE 221845Z AUTO 17008KT 10SM SCT048 SCT065 33/22 A3001 RMK AO2

22 Jul 2019 18:46

Frequency: 118.275

Phone: 843-527-3851

Other Area AWOS: KMYR - KHYW - KLRO - KCKI

TAF KMYR 221720Z 2218/2318 19014G20KT P6SM SCT050 FM230300 21010KT P6SM SCT050 SCT250 FM231500 20011G17KT P6SM VCSH SCT050 BKN250